Madison, MN

11:13 PM CDT on September 23, 2014 (GMT -0500)
Canby | Change Station
CLOSE
Current Station
Airport
Location: Canby,
Elevation: 1194 ft
Nearby Weather Stations

Elev 1194 ft 44.73 °N, 96.26 °W | Updated 20 minutes ago

Partly Cloudy
Partly Cloudy
59 °F
Feels Like 59 °F
N
12
Wind Variable Wind from SE

Today
High -- | Low -- °F
--% Chance of Precip.
Yesterday
High -- | Low -- °F
Precip. -- in
7:13 AM 7:20 PM
Waning Crescent, 0% visible
Pressure 30.06 in
Visibility 10.0 miles
Clouds Overcast 4200 ft
Dew Point 56 °F
Humidity 91%
Rainfall 0.27 in
Snow Depth Not available.
UV 0 out of 12
Pollen 1.50 out of 12
Air Quality Not available.
Flu Activity Not available.
METAR KCNB 240353Z AUTO 14010KT 10SM OVC042 15/14 A3006 RMK AO2 T01500135

More Conditions Fewer Conditions

Pressure 30.06 in
Visibility 10.0 miles
Clouds Overcast 4200 ft
Dew Point 56 °F
Humidity 91%
Rainfall 0.27 in
Snow Depth Not available.
UV 0 out of 12
Pollen 1.50 out of 12
Air Quality Not available.
Flu Activity Not available.
METAR KCNB 240353Z AUTO 14010KT 10SM OVC042 15/14 A3006 RMK AO2 T01500135

More Conditions Fewer Conditions

10-Day Weather Forecast

Almanac

Astronomy

Sep. 23, 2014 Rise Set
Actual Time 7:13 AM CDT 7:20 PM CDT
Civil Twilight 6:43 AM CDT 7:49 PM CDT
Nautical Twilight 6:09 AM CDT 8:23 PM CDT
Astronomical Twilight 5:34 AM CDT 8:58 PM CDT
Moon 6:37 AM CDT (9/23) 6:58 PM CDT (9/23)
Length of Visible Light 13h 05m
Length of Day
12h 07m
Tomorrow will be 3m 7s shorter.
Waning Crescent, 0% of the Moon is Illuminated
Sep 24
Waning Crescent
Sep 24
New
Oct 1
First Quarter
Oct 8
Full
Oct 15
Last Quarter

Today's Extremes

State Highs State Lows

Community

WunderPhotos

Upload Photos

1,755,890 photos uploaded!

WunderBlogs® & News

Nearby

Snow Depth

Station Depth Elevation
No new snow has been reported.

Earthquake Activity

City Distance Mag. Time & Date
No recent earthquake activity has been reported nearby.
Minimum magnitude displayed is 2.5.

Coastal Water Temperatures

Place Temperature
No Stations Reporting

Nearby Weather Stations